Terminal Aerodrome Forecast
Issued by NWS

Home | Current Version | Previous Version | Graphics & Text | Print | Product List | Glossary On
Versions: 1 2 3 4 5 6 7 8 9 10 11 12
980
FTUS43 KICT 190520
TAFHUT
TAF
KHUT 190520Z 1906/2006 15010KT P6SM SKC
     FM191400 18015G25KT P6SM FEW250
     FM200100 15012KT P6SM SKC=

USA.gov is the U.S. government's official web portal to all federal, state and local government web resources and services.